Latest Weather Observations for Archerfield

IDQ60801

Issued at 2:52 pm EST Tuesday 19 June 2018 (issued every 10 minutes, with the page automatically refreshed every 10 minutes)

About weather observations | Map of weather stations | Latest weather observations for QLD | Other Formats
Station Details ID: 040211 Name: ARCHERFIELD AIRPORT Lat: -27.57 Lon: 153.01 Height: 12.5 m
Data from the previous 72 hours. | See also: Recent months at Archerfield
Date/Time
EST
Temp
°C
App
Temp
°C
Dew
Point
°C
Rel
Hum
%
Delta-T
°C
Wind Press
QNH
hPa
Press
MSL
hPa
Rain since
9am
mm
Dir  Spd
km/h
Gust
km/h
Spd
kts
Gust
kts
19/02:30pm 19.4 12.4 -0.6 26 8.7 WSW 26 35 14 19 1015.7 1015.7 0.0
19/02:00pm 19.2 12.2 -0.2 27 8.5 WSW 26 37 14 20 1016.1 1016.1 0.0
19/01:37pm 19.8 12.1 -0.2 26 8.8 WSW 30 48 16 26 1015.9 1015.9 0.0
19/01:30pm 19.8 11.8 0.3 27 8.6 WSW 32 46 17 25 1016.0 1016.0 0.0
19/01:00pm 19.9 12.5 -0.7 25 9.0 WSW 28 44 15 24 1016.0 1016.0 0.0
19/12:42pm 19.5 12.4 -1.0 25 8.8 WSW 26 54 14 29 1016.2 1016.2 0.0
19/12:39pm 19.6 13.9 -0.4 26 8.7 WSW 19 39 10 21 1016.3 1016.3 0.0
19/12:30pm 18.0 14.9 3.5 38 6.8 N 9 13 5 7 1016.6 1016.6 0.0
19/12:00pm 18.2 11.4 3.3 37 6.9 WNW 28 35 15 19 1017.3 1017.3 0.0
19/11:30am 17.6 11.6 3.5 39 6.6 W 24 32 13 17 1018.4 1018.4 0.0
19/11:00am 16.9 11.4 3.9 42 6.0 WNW 22 30 12 16 1018.9 1018.9 0.0
19/10:30am 16.2 10.3 3.9 44 5.7 WNW 24 33 13 18 1019.3 1019.3 0.0
19/10:00am 14.9 9.0 3.7 47 5.1 W 24 33 13 18 1019.3 1019.3 0.0
19/09:30am 14.4 8.9 4.1 50 4.7 W 22 30 12 16 1019.1 1019.1 0.0
19/09:00am 13.4 7.9 3.8 52 4.3 W 22 33 12 18 1018.8 1018.8 0.0
19/08:30am 12.5 6.6 4.0 56 3.8 W 24 35 13 19 1018.6 1018.6 0.0
19/08:00am 11.4 6.8 3.9 60 3.3 W 17 30 9 16 1018.8 1018.8 0.0
19/07:30am 10.2 5.6 3.9 65 2.8 W 17 24 9 13 1018.7 1018.7 0.0
19/07:00am 7.8 3.9 3.3 73 1.9 SW 13 15 7 8 1018.6 1018.6 0.0
19/06:30am 8.1 4.9 2.8 69 2.2 SW 9 11 5 6 1018.3 1018.3 0.0
19/06:00am 8.5 5.7 2.9 68 2.4 SSW 7 11 4 6 1018.1 1018.1 0.0
19/05:30am 8.2 4.2 2.9 69 2.2 WSW 13 17 7 9 1017.8 1017.8 0.0
19/05:00am 8.8 4.9 3.2 68 2.4 WSW 13 19 7 10 1017.8 1017.8 0.0
19/04:30am 8.5 4.5 2.9 68 2.4 WSW 13 17 7 9 1017.9 1017.9 0.0
19/04:00am 9.1 5.5 3.1 66 2.6 SW 11 17 6 9 1017.9 1017.9 0.0
19/03:30am 9.5 5.6 3.3 65 2.7 WSW 13 19 7 10 1017.7 1017.7 0.0
19/03:00am 9.4 5.8 3.2 65 2.7 WSW 11 19 6 10 1017.9 1017.9 0.0
19/02:30am 9.1 5.9 2.9 65 2.6 WSW 9 13 5 7 1018.0 1018.0 0.0
19/02:00am 9.6 5.6 2.9 63 2.9 SW 13 17 7 9 1018.2 1018.2 0.0
19/01:30am 9.9 5.6 3.0 62 3.0 WSW 15 20 8 11 1018.2 1018.2 0.0
19/01:00am 9.9 5.1 2.7 61 3.1 W 17 20 9 11 1018.1 1018.1 0.0
19/12:30am 10.3 5.1 2.7 59 3.3 W 19 22 10 12 1018.1 1018.1 0.0
19/12:00am 10.9 5.6 3.0 58 3.4 W 20 28 11 15 1018.3 1018.3 0.0
 
Date/Time
EST
Temp
°C
App
Temp
°C
Dew
Point
°C
Rel
Hum
%
Delta-T
°C
Wind Press
QNH
hPa
Press
MSL
hPa
Rain since
9am
mm
Dir  Spd
km/h
Gust
km/h
Spd
kts
Gust
kts
18/11:30pm 10.7 5.9 2.5 57 3.5 W 17 20 9 11 1018.6 1018.6 0.0
18/11:00pm 11.0 5.6 2.6 56 3.6 W 20 26 11 14 1018.5 1018.5 0.0
18/10:30pm 10.9 5.5 2.7 57 3.5 W 20 26 11 14 1018.4 1018.4 0.0
18/10:00pm 10.6 5.8 2.4 57 3.5 W 17 20 9 11 1018.6 1018.6 0.0
18/09:30pm 10.7 5.8 2.3 56 3.6 W 17 20 9 11 1018.6 1018.6 0.0
18/09:00pm 10.6 6.4 1.9 55 3.7 W 13 17 7 9 1018.6 1018.6 0.0
18/08:30pm 11.6 6.8 2.4 53 4.0 W 17 22 9 12 1018.8 1018.8 0.0
18/08:00pm 11.7 6.5 2.5 53 4.0 WSW 19 20 10 11 1018.8 1018.8 0.0
18/07:30pm 11.7 7.2 2.2 52 4.1 WSW 15 19 8 10 1018.6 1018.6 0.0
18/07:00pm 12.5 7.7 2.4 50 4.4 WSW 17 20 9 11 1018.3 1018.3 0.0
18/06:30pm 12.4 8.3 2.0 49 4.5 WSW 13 19 7 10 1018.1 1018.1 0.0
18/06:00pm 13.7 8.4 2.0 45 5.1 WSW 19 24 10 13 1017.4 1017.4 0.0
18/05:30pm 14.3 9.0 1.9 43 5.4 WSW 19 24 10 13 1017.0 1017.0 0.0
18/05:00pm 15.5 8.4 1.3 38 6.2 WSW 28 35 15 19 1016.4 1016.4 0.0
18/04:30pm 16.3 8.8 1.2 36 6.6 WSW 30 39 16 21 1016.2 1016.2 0.0
18/04:00pm 17.0 10.7 1.8 36 6.8 W 24 37 13 20 1015.8 1015.8 0.0
18/03:30pm 17.5 10.8 1.5 34 7.1 WSW 26 43 14 23 1015.5 1015.5 0.0
18/03:00pm 17.5 9.6 1.1 33 7.2 W 32 43 17 23 1015.3 1015.3 0.0
18/02:30pm 18.5 10.6 2.4 34 7.4 W 33 46 18 25 1015.1 1015.1 0.0
18/02:00pm 18.0 9.6 1.5 33 7.4 W 35 50 19 27 1015.2 1015.2 0.0
18/01:30pm 18.1 10.0 1.2 32 7.5 WSW 33 46 18 25 1015.4 1015.4 0.0
18/01:00pm 17.7 10.5 0.8 32 7.4 W 28 39 15 21 1016.1 1016.1 0.0
18/12:30pm 17.5 9.4 1.1 33 7.2 W 33 46 18 25 1016.5 1016.5 0.0
18/12:22pm 17.2 10.0 0.4 32 7.3 W 28 43 15 23 1016.5 1016.5 0.0
18/12:00pm 17.8 11.9 1.7 34 7.2 WNW 22 32 12 17 1017.0 1017.0 0.0
18/11:30am 16.8 8.8 0.5 33 7.1 W 32 46 17 25 1017.7 1017.7 0.0
18/11:00am 15.8 10.1 0.4 35 6.6 W 20 30 11 16 1018.4 1018.4 0.0
18/10:30am 15.0 9.0 0.8 38 6.1 W 22 30 12 16 1018.8 1018.8 0.0
18/10:00am 14.1 7.0 1.4 42 5.5 W 28 33 15 18 1019.0 1019.0 0.0
18/09:30am 13.2 6.8 1.2 44 5.1 WNW 24 32 13 17 1019.1 1019.1 0.0
18/09:00am 12.4 6.0 1.1 46 4.8 W 24 32 13 17 1019.3 1019.3 0.0
18/08:30am 11.4 3.9 1.4 50 4.2 W 30 35 16 19 1019.4 1019.4 0.0
18/08:00am 10.3 4.8 0.9 52 3.9 W 19 24 10 13 1019.4 1019.4 0.0
18/07:30am 9.2 3.5 0.6 55 3.5 W 20 24 11 13 1019.4 1019.4 0.0
18/07:00am 7.8 2.7 0.5 60 2.9 W 17 22 9 12 1019.3 1019.3 0.0
18/06:30am 8.1 2.5 0.1 57 3.2 W 19 24 10 13 1019.2 1019.2 0.0
18/06:00am 8.4 2.9 0.4 57 3.2 W 19 26 10 14 1018.8 1018.8 0.0
18/05:30am 8.4 2.6 0.1 56 3.3 W 20 24 11 13 1018.6 1018.6 0.0
18/05:00am 8.5 2.4 0.2 56 3.3 W 22 26 12 14 1018.5 1018.5 0.0
18/04:30am 8.3 1.8 0.1 56 3.2 W 24 30 13 16 1018.5 1018.5 0.0
18/04:00am 8.7 2.1 -0.1 54 3.5 W 24 30 13 16 1018.4 1018.4 0.0
18/03:30am 8.7 2.5 -0.3 53 3.5 WSW 22 32 12 17 1018.8 1018.8 0.0
18/03:00am 9.4 3.2 -0.5 50 3.9 WSW 22 33 12 18 1018.7 1018.7 0.0
18/02:30am 8.7 4.2 -0.3 53 3.5 WSW 13 15 7 8 1018.7 1018.7 0.0
18/02:00am 9.0 4.4 -0.9 50 3.8 SW 13 19 7 10 1018.9 1018.9 0.0
18/01:30am 9.5 4.9 -0.9 48 4.1 WSW 13 19 7 10 1019.1 1019.1 0.0
18/01:00am 9.6 6.1 -1.4 46 4.2 SW 7 15 4 8 1019.1 1019.1 0.0
18/12:30am 10.3 5.3 -1.1 45 4.5 W 15 22 8 12 1019.1 1019.1 0.0
18/12:00am 11.4 5.6 -1.4 41 5.0 W 19 24 10 13 1019.2 1019.2 0.0
 
Date/Time
EST
Temp
°C
App
Temp
°C
Dew
Point
°C
Rel
Hum
%
Delta-T
°C
Wind Press
QNH
hPa
Press
MSL
hPa
Rain since
9am
mm
Dir  Spd
km/h
Gust
km/h
Spd
kts
Gust
kts
17/11:30pm 11.6 5.3 -1.2 41 5.1 W 22 30 12 16 1019.1 1019.1 0.0
17/11:00pm 11.5 5.2 -0.9 42 4.9 W 22 33 12 18 1019.2 1019.2 0.0
17/10:30pm 11.6 7.0 -0.9 42 5.0 W 13 30 7 16 1019.3 1019.3 0.0
17/10:00pm 11.1 5.7 -1.0 43 4.8 W 17 24 9 13 1019.5 1019.5 0.0
17/09:30pm 11.8 5.1 -1.0 41 5.1 W 24 28 13 15 1019.2 1019.2 0.0
17/09:00pm 11.0 5.1 -0.8 44 4.7 W 20 26 11 14 1019.0 1019.0 0.0
17/08:30pm 11.4 6.0 -1.0 42 4.9 W 17 22 9 12 1019.0 1019.0 0.0
17/08:00pm 11.1 4.8 -0.7 44 4.7 W 22 24 12 13 1019.0 1019.0 0.0
17/07:30pm 10.8 5.8 -0.9 44 4.6 W 15 19 8 10 1019.1 1019.1 0.0
17/07:00pm 11.4 6.4 -1.0 42 4.9 W 15 19 8 10 1018.6 1018.6 0.0
17/06:30pm 13.1 8.8 -2.0 35 6.0 WSW 11 15 6 8 1018.2 1018.2 0.0
17/06:00pm 13.3 8.6 -1.8 35 6.0 W 13 20 7 11 1017.6 1017.6 0.0
17/05:30pm 14.2 9.5 -1.8 33 6.4 W 13 19 7 10 1017.3 1017.3 0.0
17/05:00pm 14.8 10.1 -2.1 31 6.8 W 13 19 7 10 1016.9 1016.9 0.0
17/04:30pm 17.6 10.3 -3.2 24 8.4 W 26 33 14 18 1016.5 1016.5 0.0
17/04:00pm 18.2 10.1 -3.2 23 8.7 W 30 41 16 22 1016.0 1016.0 0.0
17/03:30pm 19.0 10.4 -3.8 21 9.2 W 32 43 17 23 1016.0 1016.0 0.0
17/03:06pm 19.3 11.5 -4.2 20 9.5 W 28 46 15 25 1015.7 1015.7 0.0
17/03:00pm 19.5 11.0 -3.4 21 9.4 W 32 48 17 26 1015.6 1015.6 0.0
17/02:30pm 19.8 11.7 -3.1 21 9.5 W 30 50 16 27 1015.7 1015.7 0.0
17/02:29pm 19.9 11.8 -3.0 21 9.5 W 30 50 16 27 1015.7 1015.7 0.0
17/02:00pm 19.4 8.9 -2.8 22 9.2 W 43 57 23 31 1015.7 1015.7 0.0
17/01:41pm 19.6 11.0 -2.7 22 9.3 W 33 54 18 29 1015.7 1015.7 0.0
17/01:30pm 19.5 10.6 -2.2 23 9.1 W 35 50 19 27 1015.8 1015.8 0.0
17/01:00pm 19.4 9.4 -1.7 24 8.9 W 41 56 22 30 1016.1 1016.1 0.0
17/12:30pm 19.0 9.8 -1.4 25 8.7 W 37 50 20 27 1016.6 1016.6 0.0
17/12:00pm 19.2 10.8 -0.7 26 8.6 W 33 52 18 28 1017.3 1017.3 0.0
17/11:56am 18.6 9.9 -0.7 27 8.3 W 35 52 19 28 1017.4 1017.4 0.0
17/11:50am 19.0 10.9 -0.4 27 8.4 W 32 46 17 25 1017.3 1017.3 0.0
17/11:30am 18.6 9.6 -0.2 28 8.2 WSW 37 50 20 27 1017.8 1017.8 0.0
17/11:13am 18.5 9.4 -0.8 27 8.3 W 37 56 20 30 1018.2 1018.2 0.0
17/11:00am 18.5 8.6 -0.8 27 8.3 W 41 54 22 29 1018.4 1018.4 0.0
17/10:30am 18.1 10.2 -1.2 27 8.2 W 30 50 16 27 1018.7 1018.7 0.0
17/10:28am 18.4 11.0 -0.4 28 8.1 W 28 50 15 27 1018.7 1018.7 0.0
17/10:00am 17.5 10.4 1.5 34 7.1 W 28 39 15 21 1019.1 1019.1 0.0
17/09:30am 16.5 10.2 1.4 36 6.7 W 24 32 13 17 1019.4 1019.4 0.0
17/09:00am 15.7 10.4 2.8 42 5.8 W 20 28 11 15 1019.6 1019.6 0.0
17/08:30am 14.3 10.9 4.0 50 4.7 W 11 17 6 9 1019.5 1019.5 0.0
17/08:00am 11.3 9.0 4.7 64 3.0 SSW 6 7 3 4 1019.4 1019.4 0.0
17/07:30am 8.3 7.0 4.1 75 1.8 CALM 0 0 0 0 1019.3 1019.3 0.0
17/07:00am 8.1 6.7 3.6 73 1.9 CALM 0 0 0 0 1019.0 1019.0 0.0
17/06:30am 4.8 2.5 0.4 73 1.7 SSW 2 7 1 4 1018.6 1018.6 0.0
17/06:00am 5.4 3.3 1.9 78 1.4 S 2 7 1 4 1018.3 1018.3 0.0
17/05:30am 6.0 4.5 3.0 81 1.2 CALM 0 0 0 0 1018.0 1018.0 0.0
17/05:00am 5.9 4.4 2.9 81 1.2 CALM 0 6 0 3 1017.6 1017.6 0.0
17/04:30am 7.1 4.3 3.0 75 1.7 SE 7 9 4 5 1017.5 1017.5 0.0
17/04:00am 6.1 3.7 2.2 76 1.6 SSE 4 7 2 4 1017.5 1017.5 0.0
17/03:30am 7.3 5.1 3.4 76 1.7 SSE 4 9 2 5 1017.5 1017.5 0.0
17/03:00am 6.8 5.1 2.1 72 1.9 CALM 0 0 0 0 1017.6 1017.6 0.0
17/02:30am 7.7 4.1 3.2 73 1.9 SE 11 13 6 7 1017.7 1017.7 0.0
17/02:00am 6.7 5.4 3.9 82 1.2 CALM 0 0 0 0 1017.9 1017.9 0.0
17/01:30am 7.7 6.1 2.6 70 2.1 CALM 0 0 0 0 1018.4 1018.4 0.0
17/01:00am 8.7 6.6 3.9 72 2.1 SSE 4 7 2 4 1018.7 1018.7 0.0
17/12:30am 8.3 7.1 4.7 78 1.6 CALM 0 0 0 0 1019.0 1019.0 0.0
17/12:00am 8.5 7.4 5.1 79 1.5 CALM 0 0 0 0 1019.2 1019.2 0.0
 
Date/Time
EST
Temp
°C
App
Temp
°C
Dew
Point
°C
Rel
Hum
%
Delta-T
°C
Wind Press
QNH
hPa
Press
MSL
hPa
Rain since
9am
mm
Dir  Spd
km/h
Gust
km/h
Spd
kts
Gust
kts
16/11:30pm 8.8 6.8 4.2 73 2.0 S 4 6 2 3 1019.2 1019.2 0.0
16/11:00pm 10.1 8.8 4.0 66 2.7 CALM 0 0 0 0 1019.3 1019.3 0.0
16/10:30pm 9.7 7.8 4.9 72 2.2 SSW 4 7 2 4 1019.3 1019.3 0.0
16/10:00pm 11.3 7.6 4.3 62 3.1 WSW 13 15 7 8 1019.4 1019.4 0.0
16/09:30pm 10.2 9.4 6.4 77 1.8 CALM 0 0 0 0 1019.6 1019.6 0.0
16/09:00pm 10.1 8.9 4.7 69 2.4 CALM 0 6 0 3 1019.4 1019.4 0.0
16/08:30pm 12.1 9.9 6.4 68 2.7 SW 7 9 4 5 1019.3 1019.3 0.0
16/08:00pm 13.1 11.5 6.2 63 3.3 N 4 7 2 4 1019.1 1019.1 0.0
16/07:30pm 14.0 11.4 6.1 59 3.8 N 9 13 5 7 1019.0 1019.0 0.0
16/07:00pm 14.2 11.4 5.0 54 4.3 N 9 11 5 6 1018.7 1018.7 0.0
16/06:30pm 12.9 9.8 5.6 61 3.4 N 11 13 6 7 1018.4 1018.4 0.0
16/06:00pm 14.2 11.3 4.8 53 4.4 N 9 11 5 6 1018.0 1018.0 0.0
16/05:30pm 15.8 12.8 1.9 39 6.2 NNW 7 9 4 5 1017.6 1017.6 0.0
16/05:00pm 18.7 15.4 2.5 34 7.4 NW 9 11 5 6 1017.2 1017.2 0.0
16/04:30pm 20.4 15.8 1.8 29 8.5 WNW 15 19 8 10 1017.0 1017.0 0.0
16/04:00pm 21.8 17.7 2.5 28 9.1 NW 13 20 7 11 1016.8 1016.8 0.0
16/03:30pm 22.3 17.0 1.9 26 9.5 NW 19 24 10 13 1016.7 1016.7 0.0
16/03:00pm 22.6 17.6 1.6 25 9.8 NW 17 24 9 13 1016.8 1016.8 0.0

Other Formats:

Comma delimited format used in spreadsheet applications
http://www.bom.gov.au/fwo/IDQ60801/IDQ60801.94575.axf

JavaScript Object Notation format (JSON) in row-major order
http://www.bom.gov.au/fwo/IDQ60801/IDQ60801.94575.json